sensor_id;sensor_type;location;lat;lon;timestamp;temperature;humidity
19397;DHT22;9834;48.076;11.878;2023-06-14T00:00:18;9.90;99.90
19397;DHT22;9834;48.076;11.878;2023-06-14T00:02:45;9.80;99.90
19397;DHT22;9834;48.076;11.878;2023-06-14T00:05:12;9.80;99.90
19397;DHT22;9834;48.076;11.878;2023-06-14T00:07:42;9.80;99.90
19397;DHT22;9834;48.076;11.878;2023-06-14T00:10:10;9.80;99.90
19397;DHT22;9834;48.076;11.878;2023-06-14T00:12:38;9.70;99.90
19397;DHT22;9834;48.076;11.878;2023-06-14T00:15:07;9.70;99.90
19397;DHT22;9834;48.076;11.878;2023-06-14T00:17:35;9.70;99.90
19397;DHT22;9834;48.076;11.878;2023-06-14T00:20:03;9.70;99.90
19397;DHT22;9834;48.076;11.878;2023-06-14T00:22:33;9.70;99.90
19397;DHT22;9834;48.076;11.878;2023-06-14T00:25:04;9.70;99.90
19397;DHT22;9834;48.076;11.878;2023-06-14T00:27:31;9.70;99.90
19397;DHT22;9834;48.076;11.878;2023-06-14T00:29:58;9.70;99.90
19397;DHT22;9834;48.076;11.878;2023-06-14T00:32:25;9.70;99.90
19397;DHT22;9834;48.076;11.878;2023-06-14T00:34:53;9.70;99.90
19397;DHT22;9834;48.076;11.878;2023-06-14T00:37:20;9.60;99.90
19397;DHT22;9834;48.076;11.878;2023-06-14T00:39:47;9.60;99.90
19397;DHT22;9834;48.076;11.878;2023-06-14T00:42:24;9.60;99.90
19397;DHT22;9834;48.076;11.878;2023-06-14T00:44:52;9.60;99.90
19397;DHT22;9834;48.076;11.878;2023-06-14T00:47:19;9.50;99.90
19397;DHT22;9834;48.076;11.878;2023-06-14T00:49:47;9.50;99.90
19397;DHT22;9834;48.076;11.878;2023-06-14T00:52:15;9.50;99.90
19397;DHT22;9834;48.076;11.878;2023-06-14T00:54:42;9.50;99.90
19397;DHT22;9834;48.076;11.878;2023-06-14T00:57:09;9.40;99.90
19397;DHT22;9834;48.076;11.878;2023-06-14T00:59:42;9.40;99.90
19397;DHT22;9834;48.076;11.878;2023-06-14T01:02:10;9.40;99.90
19397;DHT22;9834;48.076;11.878;2023-06-14T01:04:37;9.40;99.90
19397;DHT22;9834;48.076;11.878;2023-06-14T01:07:21;9.40;99.90
19397;DHT22;9834;48.076;11.878;2023-06-14T01:10:01;9.40;99.90
19397;DHT22;9834;48.076;11.878;2023-06-14T01:12:35;9.40;99.90
19397;DHT22;9834;48.076;11.878;2023-06-14T01:15:06;9.40;99.90
19397;DHT22;9834;48.076;11.878;2023-06-14T01:17:34;9.30;99.90
19397;DHT22;9834;48.076;11.878;2023-06-14T01:20:02;9.20;99.90
19397;DHT22;9834;48.076;11.878;2023-06-14T01:22:35;9.20;99.90
19397;DHT22;9834;48.076;11.878;2023-06-14T01:25:04;9.10;99.90
19397;DHT22;9834;48.076;11.878;2023-06-14T01:27:31;9.10;99.90
19397;DHT22;9834;48.076;11.878;2023-06-14T01:29:58;9.00;99.90
19397;DHT22;9834;48.076;11.878;2023-06-14T01:32:29;9.00;99.90
19397;DHT22;9834;48.076;11.878;2023-06-14T01:34:56;8.90;99.90
19397;DHT22;9834;48.076;11.878;2023-06-14T01:37:24;8.80;99.90
19397;DHT22;9834;48.076;11.878;2023-06-14T01:39:51;8.70;99.90
19397;DHT22;9834;48.076;11.878;2023-06-14T01:42:20;8.70;99.90
19397;DHT22;9834;48.076;11.878;2023-06-14T01:44:47;8.60;99.90
19397;DHT22;9834;48.076;11.878;2023-06-14T01:47:15;8.50;99.90
19397;DHT22;9834;48.076;11.878;2023-06-14T01:49:42;8.50;99.90
19397;DHT22;9834;48.076;11.878;2023-06-14T01:52:09;8.40;99.90
19397;DHT22;9834;48.076;11.878;2023-06-14T01:54:36;8.30;99.90
19397;DHT22;9834;48.076;11.878;2023-06-14T01:57:07;8.30;99.90
19397;DHT22;9834;48.076;11.878;2023-06-14T01:59:35;8.20;99.90
19397;DHT22;9834;48.076;11.878;2023-06-14T02:02:03;8.10;99.90
19397;DHT22;9834;48.076;11.878;2023-06-14T02:04:30;8.10;99.90
19397;DHT22;9834;48.076;11.878;2023-06-14T02:06:57;8.10;99.90
19397;DHT22;9834;48.076;11.878;2023-06-14T02:09:24;8.00;99.90
19397;DHT22;9834;48.076;11.878;2023-06-14T02:11:51;8.00;99.90
19397;DHT22;9834;48.076;11.878;2023-06-14T02:14:18;8.00;99.90
19397;DHT22;9834;48.076;11.878;2023-06-14T02:16:46;7.90;99.90
19397;DHT22;9834;48.076;11.878;2023-06-14T02:19:14;7.90;99.90
19397;DHT22;9834;48.076;11.878;2023-06-14T02:21:42;7.90;99.90
19397;DHT22;9834;48.076;11.878;2023-06-14T02:24:09;7.90;99.90
19397;DHT22;9834;48.076;11.878;2023-06-14T02:26:35;7.80;99.90
19397;DHT22;9834;48.076;11.878;2023-06-14T02:29:03;7.80;99.90
19397;DHT22;9834;48.076;11.878;2023-06-14T02:31:31;7.80;99.90
19397;DHT22;9834;48.076;11.878;2023-06-14T02:33:59;7.80;99.90
19397;DHT22;9834;48.076;11.878;2023-06-14T02:36:26;7.80;99.90
19397;DHT22;9834;48.076;11.878;2023-06-14T02:38:56;7.70;99.90
19397;DHT22;9834;48.076;11.878;2023-06-14T02:41:23;7.70;99.90
19397;DHT22;9834;48.076;11.878;2023-06-14T02:43:51;7.60;99.90
19397;DHT22;9834;48.076;11.878;2023-06-14T02:46:18;7.60;99.90
19397;DHT22;9834;48.076;11.878;2023-06-14T02:48:45;7.60;99.90
19397;DHT22;9834;48.076;11.878;2023-06-14T02:51:13;7.60;99.90
19397;DHT22;9834;48.076;11.878;2023-06-14T02:53:40;7.60;99.90
19397;DHT22;9834;48.076;11.878;2023-06-14T02:56:07;7.50;99.90
19397;DHT22;9834;48.076;11.878;2023-06-14T02:58:36;7.60;99.90
19397;DHT22;9834;48.076;11.878;2023-06-14T03:01:03;7.60;99.90
19397;DHT22;9834;48.076;11.878;2023-06-14T03:03:31;7.60;99.90
19397;DHT22;9834;48.076;11.878;2023-06-14T03:05:58;7.60;99.90
19397;DHT22;9834;48.076;11.878;2023-06-14T03:08:31;7.60;99.90
19397;DHT22;9834;48.076;11.878;2023-06-14T03:11:04;7.70;99.90
19397;DHT22;9834;48.076;11.878;2023-06-14T03:13:31;7.70;99.90
19397;DHT22;9834;48.076;11.878;2023-06-14T03:15:59;7.70;99.90
19397;DHT22;9834;48.076;11.878;2023-06-14T03:18:28;7.70;99.90
19397;DHT22;9834;48.076;11.878;2023-06-14T03:20:56;7.70;99.90
19397;DHT22;9834;48.076;11.878;2023-06-14T03:23:23;7.70;99.90
19397;DHT22;9834;48.076;11.878;2023-06-14T03:25:52;7.80;99.90
19397;DHT22;9834;48.076;11.878;2023-06-14T03:28:19;7.80;99.90
19397;DHT22;9834;48.076;11.878;2023-06-14T03:30:46;7.90;99.90
19397;DHT22;9834;48.076;11.878;2023-06-14T03:33:13;7.90;99.90
19397;DHT22;9834;48.076;11.878;2023-06-14T03:35:41;7.90;99.90
19397;DHT22;9834;48.076;11.878;2023-06-14T03:38:08;7.90;99.90
19397;DHT22;9834;48.076;11.878;2023-06-14T03:40:35;7.90;99.90
19397;DHT22;9834;48.076;11.878;2023-06-14T03:43:03;7.90;99.90
19397;DHT22;9834;48.076;11.878;2023-06-14T03:45:30;8.00;99.90
19397;DHT22;9834;48.076;11.878;2023-06-14T03:47:57;8.00;99.90
19397;DHT22;9834;48.076;11.878;2023-06-14T03:50:26;8.00;99.90
19397;DHT22;9834;48.076;11.878;2023-06-14T03:52:53;8.00;99.90
19397;DHT22;9834;48.076;11.878;2023-06-14T03:55:19;8.00;99.90
19397;DHT22;9834;48.076;11.878;2023-06-14T03:57:46;8.10;99.90
19397;DHT22;9834;48.076;11.878;2023-06-14T04:00:15;8.10;99.90
19397;DHT22;9834;48.076;11.878;2023-06-14T04:02:43;8.20;99.90
19397;DHT22;9834;48.076;11.878;2023-06-14T04:05:10;8.20;99.90
19397;DHT22;9834;48.076;11.878;2023-06-14T04:07:37;8.20;99.90
19397;DHT22;9834;48.076;11.878;2023-06-14T04:10:06;8.30;99.90
19397;DHT22;9834;48.076;11.878;2023-06-14T04:12:34;8.30;99.90
19397;DHT22;9834;48.076;11.878;2023-06-14T04:15:01;8.40;99.90
19397;DHT22;9834;48.076;11.878;2023-06-14T04:17:29;8.50;99.90
19397;DHT22;9834;48.076;11.878;2023-06-14T04:19:58;8.60;99.90
19397;DHT22;9834;48.076;11.878;2023-06-14T04:22:25;8.70;99.90
19397;DHT22;9834;48.076;11.878;2023-06-14T04:24:54;8.70;99.90
19397;DHT22;9834;48.076;11.878;2023-06-14T04:27:22;8.80;99.90
19397;DHT22;9834;48.076;11.878;2023-06-14T04:29:51;8.90;99.90
19397;DHT22;9834;48.076;11.878;2023-06-14T04:32:23;9.00;99.90
19397;DHT22;9834;48.076;11.878;2023-06-14T04:34:53;9.10;99.90
19397;DHT22;9834;48.076;11.878;2023-06-14T04:37:20;9.20;99.90
19397;DHT22;9834;48.076;11.878;2023-06-14T04:39:48;9.30;99.90
19397;DHT22;9834;48.076;11.878;2023-06-14T04:42:15;9.50;99.90
19397;DHT22;9834;48.076;11.878;2023-06-14T04:44:46;9.60;99.90
19397;DHT22;9834;48.076;11.878;2023-06-14T04:47:14;9.70;99.90
19397;DHT22;9834;48.076;11.878;2023-06-14T04:49:41;9.90;99.90
19397;DHT22;9834;48.076;11.878;2023-06-14T04:52:10;10.00;99.90
19397;DHT22;9834;48.076;11.878;2023-06-14T04:54:38;10.10;99.90
19397;DHT22;9834;48.076;11.878;2023-06-14T04:57:07;10.30;99.90
19397;DHT22;9834;48.076;11.878;2023-06-14T04:59:34;10.50;99.90
19397;DHT22;9834;48.076;11.878;2023-06-14T05:02:02;10.60;99.90
19397;DHT22;9834;48.076;11.878;2023-06-14T05:04:29;10.80;99.90
19397;DHT22;9834;48.076;11.878;2023-06-14T05:06:56;10.90;99.90
19397;DHT22;9834;48.076;11.878;2023-06-14T05:09:24;11.10;99.90
19397;DHT22;9834;48.076;11.878;2023-06-14T05:11:51;11.20;99.90
19397;DHT22;9834;48.076;11.878;2023-06-14T05:14:18;11.30;99.90
19397;DHT22;9834;48.076;11.878;2023-06-14T05:16:45;11.40;99.90
19397;DHT22;9834;48.076;11.878;2023-06-14T05:19:14;11.60;99.90
19397;DHT22;9834;48.076;11.878;2023-06-14T05:21:43;11.70;99.90
19397;DHT22;9834;48.076;11.878;2023-06-14T05:24:10;11.80;99.90
19397;DHT22;9834;48.076;11.878;2023-06-14T05:26:39;11.90;99.90
19397;DHT22;9834;48.076;11.878;2023-06-14T05:29:06;12.00;99.90
19397;DHT22;9834;48.076;11.878;2023-06-14T05:31:33;12.10;99.90
19397;DHT22;9834;48.076;11.878;2023-06-14T05:34:00;12.20;99.90
19397;DHT22;9834;48.076;11.878;2023-06-14T05:36:27;12.30;99.90
19397;DHT22;9834;48.076;11.878;2023-06-14T05:38:55;12.30;99.90
19397;DHT22;9834;48.076;11.878;2023-06-14T05:41:24;12.40;99.90
19397;DHT22;9834;48.076;11.878;2023-06-14T05:43:53;12.50;99.90
19397;DHT22;9834;48.076;11.878;2023-06-14T05:46:20;12.60;99.90
19397;DHT22;9834;48.076;11.878;2023-06-14T05:48:50;12.70;99.90
19397;DHT22;9834;48.076;11.878;2023-06-14T05:51:17;12.80;99.90
19397;DHT22;9834;48.076;11.878;2023-06-14T05:53:45;12.80;99.90
19397;DHT22;9834;48.076;11.878;2023-06-14T05:56:12;13.00;99.90
19397;DHT22;9834;48.076;11.878;2023-06-14T05:58:39;13.00;99.90
19397;DHT22;9834;48.076;11.878;2023-06-14T06:01:07;13.10;99.90
19397;DHT22;9834;48.076;11.878;2023-06-14T06:03:34;13.20;99.90
19397;DHT22;9834;48.076;11.878;2023-06-14T06:06:01;13.30;99.90
19397;DHT22;9834;48.076;11.878;2023-06-14T06:08:28;13.40;99.90
19397;DHT22;9834;48.076;11.878;2023-06-14T06:10:55;13.40;99.90
19397;DHT22;9834;48.076;11.878;2023-06-14T06:13:22;13.50;99.80
19397;DHT22;9834;48.076;11.878;2023-06-14T06:15:49;13.60;99.60
19397;DHT22;9834;48.076;11.878;2023-06-14T06:18:18;13.70;99.50
19397;DHT22;9834;48.076;11.878;2023-06-14T06:20:45;13.80;99.20
19397;DHT22;9834;48.076;11.878;2023-06-14T06:23:13;13.90;99.90
19397;DHT22;9834;48.076;11.878;2023-06-14T06:25:40;14.00;99.60
19397;DHT22;9834;48.076;11.878;2023-06-14T06:28:07;14.10;98.40
19397;DHT22;9834;48.076;11.878;2023-06-14T06:30:34;14.20;95.90
19397;DHT22;9834;48.076;11.878;2023-06-14T06:33:01;14.30;95.00
19397;DHT22;9834;48.076;11.878;2023-06-14T06:35:30;14.40;95.10
19397;DHT22;9834;48.076;11.878;2023-06-14T06:37:59;14.40;94.30
19397;DHT22;9834;48.076;11.878;2023-06-14T06:40:26;14.40;94.10
19397;DHT22;9834;48.076;11.878;2023-06-14T06:42:53;14.50;93.40
19397;DHT22;9834;48.076;11.878;2023-06-14T06:45:20;14.60;93.30
19397;DHT22;9834;48.076;11.878;2023-06-14T06:47:49;14.70;93.80
19397;DHT22;9834;48.076;11.878;2023-06-14T06:50:17;14.90;93.80
19397;DHT22;9834;48.076;11.878;2023-06-14T06:52:45;14.90;91.70
19397;DHT22;9834;48.076;11.878;2023-06-14T06:55:12;15.00;91.90
19397;DHT22;9834;48.076;11.878;2023-06-14T06:57:40;15.00;90.40
19397;DHT22;9834;48.076;11.878;2023-06-14T07:00:08;15.10;88.70
19397;DHT22;9834;48.076;11.878;2023-06-14T07:02:35;15.20;90.10
19397;DHT22;9834;48.076;11.878;2023-06-14T07:05:02;15.30;88.60
19397;DHT22;9834;48.076;11.878;2023-06-14T07:07:29;15.30;87.40
19397;DHT22;9834;48.076;11.878;2023-06-14T07:09:58;15.40;90.30
19397;DHT22;9834;48.076;11.878;2023-06-14T07:12:25;15.50;85.80
19397;DHT22;9834;48.076;11.878;2023-06-14T07:14:52;15.60;86.40
19397;DHT22;9834;48.076;11.878;2023-06-14T07:17:19;15.60;84.40
19397;DHT22;9834;48.076;11.878;2023-06-14T07:19:46;15.70;88.70
19397;DHT22;9834;48.076;11.878;2023-06-14T07:22:13;15.90;83.60
19397;DHT22;9834;48.076;11.878;2023-06-14T07:24:40;16.10;86.60
19397;DHT22;9834;48.076;11.878;2023-06-14T07:27:09;16.30;83.70
19397;DHT22;9834;48.076;11.878;2023-06-14T07:29:36;16.30;86.60
19397;DHT22;9834;48.076;11.878;2023-06-14T07:32:03;16.40;83.40
19397;DHT22;9834;48.076;11.878;2023-06-14T07:34:31;16.40;84.30
19397;DHT22;9834;48.076;11.878;2023-06-14T07:36:57;16.50;81.80
19397;DHT22;9834;48.076;11.878;2023-06-14T07:39:24;16.60;82.70
19397;DHT22;9834;48.076;11.878;2023-06-14T07:41:51;16.70;81.90
19397;DHT22;9834;48.076;11.878;2023-06-14T07:44:19;16.80;81.60
19397;DHT22;9834;48.076;11.878;2023-06-14T07:46:46;17.00;78.60
19397;DHT22;9834;48.076;11.878;2023-06-14T07:49:14;17.00;78.80
19397;DHT22;9834;48.076;11.878;2023-06-14T07:51:41;17.10;76.90
19397;DHT22;9834;48.076;11.878;2023-06-14T07:54:10;17.20;75.10
19397;DHT22;9834;48.076;11.878;2023-06-14T07:56:36;17.20;75.70
19397;DHT22;9834;48.076;11.878;2023-06-14T07:59:03;17.40;76.20
19397;DHT22;9834;48.076;11.878;2023-06-14T08:01:32;17.50;73.90
19397;DHT22;9834;48.076;11.878;2023-06-14T08:03:59;17.60;75.10
19397;DHT22;9834;48.076;11.878;2023-06-14T08:06:27;17.60;71.80
19397;DHT22;9834;48.076;11.878;2023-06-14T08:08:54;17.70;73.00
19397;DHT22;9834;48.076;11.878;2023-06-14T08:11:21;17.90;76.30
19397;DHT22;9834;48.076;11.878;2023-06-14T08:13:49;18.00;72.40
19397;DHT22;9834;48.076;11.878;2023-06-14T08:16:16;18.10;69.80
19397;DHT22;9834;48.076;11.878;2023-06-14T08:18:44;18.10;70.70
19397;DHT22;9834;48.076;11.878;2023-06-14T08:21:11;18.20;71.30
19397;DHT22;9834;48.076;11.878;2023-06-14T08:23:40;18.30;68.60
19397;DHT22;9834;48.076;11.878;2023-06-14T08:26:08;18.40;69.10
19397;DHT22;9834;48.076;11.878;2023-06-14T08:28:35;18.60;68.80
19397;DHT22;9834;48.076;11.878;2023-06-14T08:31:02;18.70;68.20
19397;DHT22;9834;48.076;11.878;2023-06-14T08:33:29;18.80;69.70
19397;DHT22;9834;48.076;11.878;2023-06-14T08:35:59;19.00;67.30
19397;DHT22;9834;48.076;11.878;2023-06-14T08:38:26;19.10;66.70
19397;DHT22;9834;48.076;11.878;2023-06-14T08:40:57;19.20;66.20
19397;DHT22;9834;48.076;11.878;2023-06-14T08:43:24;19.30;65.00
19397;DHT22;9834;48.076;11.878;2023-06-14T08:45:57;19.50;67.20
19397;DHT22;9834;48.076;11.878;2023-06-14T08:48:26;19.60;62.00
19397;DHT22;9834;48.076;11.878;2023-06-14T08:50:54;19.60;58.60
19397;DHT22;9834;48.076;11.878;2023-06-14T08:53:30;19.60;62.60
19397;DHT22;9834;48.076;11.878;2023-06-14T08:55:59;19.70;61.40
19397;DHT22;9834;48.076;11.878;2023-06-14T08:58:27;19.80;61.60
19397;DHT22;9834;48.076;11.878;2023-06-14T09:00:55;19.90;66.10
19397;DHT22;9834;48.076;11.878;2023-06-14T09:03:22;20.00;63.60
19397;DHT22;9834;48.076;11.878;2023-06-14T09:05:56;20.10;58.90
19397;DHT22;9834;48.076;11.878;2023-06-14T09:08:25;20.10;59.60
19397;DHT22;9834;48.076;11.878;2023-06-14T09:10:55;20.20;59.50
19397;DHT22;9834;48.076;11.878;2023-06-14T09:13:22;20.30;58.70
19397;DHT22;9834;48.076;11.878;2023-06-14T09:15:49;20.40;59.90
19397;DHT22;9834;48.076;11.878;2023-06-14T09:18:16;20.40;58.80
19397;DHT22;9834;48.076;11.878;2023-06-14T09:20:43;20.60;61.30
19397;DHT22;9834;48.076;11.878;2023-06-14T09:23:13;20.70;57.80
19397;DHT22;9834;48.076;11.878;2023-06-14T09:25:43;20.70;61.90
19397;DHT22;9834;48.076;11.878;2023-06-14T09:28:13;20.80;58.70
19397;DHT22;9834;48.076;11.878;2023-06-14T09:30:40;20.90;57.80
19397;DHT22;9834;48.076;11.878;2023-06-14T09:33:07;21.00;56.20
19397;DHT22;9834;48.076;11.878;2023-06-14T09:35:35;21.20;54.70
19397;DHT22;9834;48.076;11.878;2023-06-14T09:38:02;21.30;53.50
19397;DHT22;9834;48.076;11.878;2023-06-14T09:40:34;21.30;56.20
19397;DHT22;9834;48.076;11.878;2023-06-14T09:43:04;21.50;54.60
19397;DHT22;9834;48.076;11.878;2023-06-14T09:45:33;21.60;53.40
19397;DHT22;9834;48.076;11.878;2023-06-14T09:48:01;21.70;53.10
19397;DHT22;9834;48.076;11.878;2023-06-14T09:50:28;21.90;57.00
19397;DHT22;9834;48.076;11.878;2023-06-14T09:52:57;22.30;55.30
19397;DHT22;9834;48.076;11.878;2023-06-14T09:55:29;22.50;51.50
19397;DHT22;9834;48.076;11.878;2023-06-14T09:57:58;22.70;54.70
19397;DHT22;9834;48.076;11.878;2023-06-14T10:00:26;22.90;55.80
19397;DHT22;9834;48.076;11.878;2023-06-14T10:03:00;23.00;54.10
19397;DHT22;9834;48.076;11.878;2023-06-14T10:05:30;23.20;51.60
19397;DHT22;9834;48.076;11.878;2023-06-14T10:08:02;23.20;49.70
19397;DHT22;9834;48.076;11.878;2023-06-14T10:10:31;23.30;53.00
19397;DHT22;9834;48.076;11.878;2023-06-14T10:12:58;23.40;52.20
19397;DHT22;9834;48.076;11.878;2023-06-14T10:15:30;23.70;52.20
19397;DHT22;9834;48.076;11.878;2023-06-14T10:18:05;24.50;51.40
19397;DHT22;9834;48.076;11.878;2023-06-14T10:20:39;26.40;46.00
19397;DHT22;9834;48.076;11.878;2023-06-14T10:23:11;28.70;41.20
19397;DHT22;9834;48.076;11.878;2023-06-14T10:25:40;30.10;39.00
19397;DHT22;9834;48.076;11.878;2023-06-14T10:28:19;31.10;36.30
19397;DHT22;9834;48.076;11.878;2023-06-14T10:31:08;32.00;33.60
19397;DHT22;9834;48.076;11.878;2023-06-14T10:33:39;32.30;32.20
19397;DHT22;9834;48.076;11.878;2023-06-14T10:36:08;32.80;31.20
19397;DHT22;9834;48.076;11.878;2023-06-14T10:38:37;32.90;31.80
19397;DHT22;9834;48.076;11.878;2023-06-14T10:41:04;33.20;29.60
19397;DHT22;9834;48.076;11.878;2023-06-14T10:43:32;33.10;30.40
19397;DHT22;9834;48.076;11.878;2023-06-14T10:46:15;33.30;29.40
19397;DHT22;9834;48.076;11.878;2023-06-14T10:48:44;33.10;29.50
19397;DHT22;9834;48.076;11.878;2023-06-14T10:51:18;33.30;29.30
19397;DHT22;9834;48.076;11.878;2023-06-14T10:53:47;33.50;28.70
19397;DHT22;9834;48.076;11.878;2023-06-14T10:56:28;33.70;28.90
19397;DHT22;9834;48.076;11.878;2023-06-14T10:58:56;34.40;28.90
19397;DHT22;9834;48.076;11.878;2023-06-14T11:01:38;34.70;30.00
19397;DHT22;9834;48.076;11.878;2023-06-14T11:04:09;34.20;28.40
19397;DHT22;9834;48.076;11.878;2023-06-14T11:06:46;33.90;28.50
19397;DHT22;9834;48.076;11.878;2023-06-14T11:12:27;34.50;27.80
19397;DHT22;9834;48.076;11.878;2023-06-14T11:14:54;34.70;28.20
19397;DHT22;9834;48.076;11.878;2023-06-14T11:17:21;34.40;27.80
19397;DHT22;9834;48.076;11.878;2023-06-14T11:19:50;33.60;28.90
19397;DHT22;9834;48.076;11.878;2023-06-14T11:22:17;34.60;29.10
19397;DHT22;9834;48.076;11.878;2023-06-14T11:24:44;35.80;27.40
19397;DHT22;9834;48.076;11.878;2023-06-14T11:27:11;36.30;27.20
19397;DHT22;9834;48.076;11.878;2023-06-14T11:29:38;36.70;27.20
19397;DHT22;9834;48.076;11.878;2023-06-14T11:32:07;37.00;26.20
19397;DHT22;9834;48.076;11.878;2023-06-14T11:34:37;37.20;25.90
19397;DHT22;9834;48.076;11.878;2023-06-14T11:37:06;37.60;26.00
19397;DHT22;9834;48.076;11.878;2023-06-14T11:39:33;37.80;24.60
19397;DHT22;9834;48.076;11.878;2023-06-14T11:42:01;36.70;26.20
19397;DHT22;9834;48.076;11.878;2023-06-14T11:44:29;36.60;27.70
19397;DHT22;9834;48.076;11.878;2023-06-14T11:46:56;36.80;26.00
19397;DHT22;9834;48.076;11.878;2023-06-14T11:49:23;37.30;25.80
19397;DHT22;9834;48.076;11.878;2023-06-14T11:51:53;36.90;25.70
19397;DHT22;9834;48.076;11.878;2023-06-14T11:54:22;37.60;26.30
19397;DHT22;9834;48.076;11.878;2023-06-14T11:56:49;38.50;26.20
19397;DHT22;9834;48.076;11.878;2023-06-14T11:59:16;39.10;25.40
19397;DHT22;9834;48.076;11.878;2023-06-14T12:01:43;38.70;24.90
19397;DHT22;9834;48.076;11.878;2023-06-14T12:04:10;39.00;24.70
19397;DHT22;9834;48.076;11.878;2023-06-14T12:06:37;38.80;25.00
19397;DHT22;9834;48.076;11.878;2023-06-14T12:09:05;38.50;24.60
19397;DHT22;9834;48.076;11.878;2023-06-14T12:11:36;38.50;24.80
19397;DHT22;9834;48.076;11.878;2023-06-14T12:14:03;37.60;24.70
19397;DHT22;9834;48.076;11.878;2023-06-14T12:16:31;35.30;26.00
19397;DHT22;9834;48.076;11.878;2023-06-14T12:19:01;33.00;28.80
19397;DHT22;9834;48.076;11.878;2023-06-14T12:21:34;31.20;31.00
19397;DHT22;9834;48.076;11.878;2023-06-14T12:24:03;30.90;30.70
19397;DHT22;9834;48.076;11.878;2023-06-14T12:26:32;30.40;30.00
19397;DHT22;9834;48.076;11.878;2023-06-14T12:29:00;29.30;30.80
19397;DHT22;9834;48.076;11.878;2023-06-14T12:31:27;28.80;31.50
19397;DHT22;9834;48.076;11.878;2023-06-14T12:33:55;30.50;34.20
19397;DHT22;9834;48.076;11.878;2023-06-14T12:36:22;31.00;30.80
19397;DHT22;9834;48.076;11.878;2023-06-14T12:38:49;30.30;32.20
19397;DHT22;9834;48.076;11.878;2023-06-14T12:41:19;29.10;32.10
19397;DHT22;9834;48.076;11.878;2023-06-14T12:43:50;27.80;33.90
19397;DHT22;9834;48.076;11.878;2023-06-14T12:46:22;28.70;37.50
19397;DHT22;9834;48.076;11.878;2023-06-14T12:48:49;30.60;31.70
19397;DHT22;9834;48.076;11.878;2023-06-14T12:51:16;32.70;30.00
19397;DHT22;9834;48.076;11.878;2023-06-14T12:53:43;33.90;28.70
19397;DHT22;9834;48.076;11.878;2023-06-14T12:56:10;34.80;29.40
19397;DHT22;9834;48.076;11.878;2023-06-14T12:58:37;35.70;27.60
19397;DHT22;9834;48.076;11.878;2023-06-14T13:01:04;36.10;26.80
19397;DHT22;9834;48.076;11.878;2023-06-14T14:36:25;41.90;22.30
19397;DHT22;9834;48.076;11.878;2023-06-14T14:38:51;40.90;22.00
19397;DHT22;9834;48.076;11.878;2023-06-14T14:41:18;41.40;23.10
19397;DHT22;9834;48.076;11.878;2023-06-14T14:43:46;40.80;22.60
19397;DHT22;9834;48.076;11.878;2023-06-14T14:46:13;40.70;22.60
19397;DHT22;9834;48.076;11.878;2023-06-14T14:48:42;41.00;22.40
19397;DHT22;9834;48.076;11.878;2023-06-14T14:51:09;41.30;21.90
19397;DHT22;9834;48.076;11.878;2023-06-14T14:53:37;40.60;21.00
19397;DHT22;9834;48.076;11.878;2023-06-14T14:56:04;39.60;22.10
19397;DHT22;9834;48.076;11.878;2023-06-14T14:58:31;38.40;22.50
19397;DHT22;9834;48.076;11.878;2023-06-14T15:00:58;37.30;23.20
19397;DHT22;9834;48.076;11.878;2023-06-14T15:03:25;37.30;23.50
19397;DHT22;9834;48.076;11.878;2023-06-14T15:05:52;37.70;23.60
19397;DHT22;9834;48.076;11.878;2023-06-14T15:08:19;37.30;24.30
19397;DHT22;9834;48.076;11.878;2023-06-14T15:10:48;36.90;24.60
19397;DHT22;9834;48.076;11.878;2023-06-14T15:13:14;37.80;25.00
19397;DHT22;9834;48.076;11.878;2023-06-14T15:15:42;39.10;24.30
19397;DHT22;9834;48.076;11.878;2023-06-14T15:18:09;39.90;21.40
19397;DHT22;9834;48.076;11.878;2023-06-14T15:20:35;39.80;21.60
19397;DHT22;9834;48.076;11.878;2023-06-14T15:23:02;39.90;22.00
19397;DHT22;9834;48.076;11.878;2023-06-14T15:25:30;38.50;22.00
19397;DHT22;9834;48.076;11.878;2023-06-14T15:27:59;35.90;24.90
19397;DHT22;9834;48.076;11.878;2023-06-14T15:30:27;33.50;26.70
19397;DHT22;9834;48.076;11.878;2023-06-14T15:32:54;32.70;26.50
19397;DHT22;9834;48.076;11.878;2023-06-14T15:35:21;31.00;28.10
19397;DHT22;9834;48.076;11.878;2023-06-14T15:37:48;29.20;30.90
19397;DHT22;9834;48.076;11.878;2023-06-14T15:40:15;29.20;32.10
19397;DHT22;9834;48.076;11.878;2023-06-14T15:42:42;31.60;30.30
19397;DHT22;9834;48.076;11.878;2023-06-14T15:45:11;33.80;27.50
19397;DHT22;9834;48.076;11.878;2023-06-14T15:47:38;33.70;27.20
19397;DHT22;9834;48.076;11.878;2023-06-14T15:50:05;32.20;28.10
19397;DHT22;9834;48.076;11.878;2023-06-14T15:52:34;30.90;29.20
19397;DHT22;9834;48.076;11.878;2023-06-14T15:55:01;29.60;30.90
19397;DHT22;9834;48.076;11.878;2023-06-14T15:57:29;28.40;33.40
19397;DHT22;9834;48.076;11.878;2023-06-14T15:59:56;27.70;34.50
19397;DHT22;9834;48.076;11.878;2023-06-14T16:02:24;27.10;35.90
19397;DHT22;9834;48.076;11.878;2023-06-14T16:04:51;26.70;35.70
19397;DHT22;9834;48.076;11.878;2023-06-14T16:07:18;26.30;36.30
19397;DHT22;9834;48.076;11.878;2023-06-14T16:09:45;26.00;36.60
19397;DHT22;9834;48.076;11.878;2023-06-14T16:12:12;25.70;37.20
19397;DHT22;9834;48.076;11.878;2023-06-14T16:14:39;25.40;38.00
19397;DHT22;9834;48.076;11.878;2023-06-14T16:17:06;25.40;38.30
19397;DHT22;9834;48.076;11.878;2023-06-14T16:19:34;25.30;39.30
19397;DHT22;9834;48.076;11.878;2023-06-14T16:22:01;25.50;39.50
19397;DHT22;9834;48.076;11.878;2023-06-14T16:24:28;25.40;37.30
19397;DHT22;9834;48.076;11.878;2023-06-14T16:26:55;27.00;38.00
19397;DHT22;9834;48.076;11.878;2023-06-14T16:29:22;28.10;34.10
19397;DHT22;9834;48.076;11.878;2023-06-14T16:31:49;27.60;34.50
19397;DHT22;9834;48.076;11.878;2023-06-14T16:34:16;26.40;35.40
19397;DHT22;9834;48.076;11.878;2023-06-14T16:36:45;25.50;37.80
19397;DHT22;9834;48.076;11.878;2023-06-14T16:39:12;25.10;38.90
19397;DHT22;9834;48.076;11.878;2023-06-14T16:41:38;24.80;39.70
19397;DHT22;9834;48.076;11.878;2023-06-14T16:44:05;24.90;39.70
19397;DHT22;9834;48.076;11.878;2023-06-14T16:46:33;26.90;38.00
19397;DHT22;9834;48.076;11.878;2023-06-14T16:49:01;29.30;33.00
19397;DHT22;9834;48.076;11.878;2023-06-14T16:51:28;29.20;33.60
19397;DHT22;9834;48.076;11.878;2023-06-14T16:53:56;29.80;33.10
19397;DHT22;9834;48.076;11.878;2023-06-14T16:56:24;31.80;30.60
19397;DHT22;9834;48.076;11.878;2023-06-14T16:58:52;32.40;29.80
19397;DHT22;9834;48.076;11.878;2023-06-14T17:01:19;32.20;31.00
19397;DHT22;9834;48.076;11.878;2023-06-14T17:03:46;32.60;28.10
19397;DHT22;9834;48.076;11.878;2023-06-14T17:06:13;33.70;29.00
19397;DHT22;9834;48.076;11.878;2023-06-14T17:08:41;34.70;27.80
19397;DHT22;9834;48.076;11.878;2023-06-14T17:11:09;34.90;26.50
19397;DHT22;9834;48.076;11.878;2023-06-14T17:13:36;35.40;26.80
19397;DHT22;9834;48.076;11.878;2023-06-14T17:16:03;35.80;25.80